createdAt,value
2023-02-02T00:02:59.518Z,6.07
2023-02-02T00:06:11.532Z,9.27
2023-02-02T00:09:23.489Z,6.03
2023-02-02T00:12:35.480Z,6.70
2023-02-02T00:15:35.501Z,5.10
2023-02-02T00:19:02.616Z,12.15
2023-02-02T00:22:02.550Z,5.60
2023-02-02T00:25:15.548Z,3.77
2023-02-02T00:28:15.542Z,13.10
2023-02-02T00:31:39.713Z,5.20
2023-02-02T00:34:53.613Z,8.85
2023-02-02T00:38:17.629Z,5.67
2023-02-02T00:41:29.596Z,4.30
2023-02-02T00:44:47.312Z,8.83
2023-02-02T00:47:47.610Z,13.20
2023-02-02T00:51:13.643Z,10.33
2023-02-02T00:54:13.657Z,13.70
2023-02-02T00:57:37.698Z,3.40
2023-02-02T01:03:53.643Z,8.80
2023-02-02T01:07:19.787Z,10.00
2023-02-02T01:10:31.735Z,10.45
2023-02-02T01:13:55.704Z,9.57
2023-02-02T01:17:07.725Z,11.25
2023-02-02T01:20:32.688Z,9.93
2023-02-02T01:23:46.780Z,5.50
2023-02-02T01:26:59.726Z,10.47
2023-02-02T01:30:11.774Z,7.35
2023-02-02T01:33:23.831Z,10.03
2023-02-02T01:36:47.760Z,7.83
2023-02-02T01:40:13.769Z,7.25
2023-02-02T01:43:13.880Z,5.00
2023-02-02T01:46:37.845Z,7.17
2023-02-02T01:49:38.852Z,13.07
2023-02-02T01:53:02.856Z,10.35
2023-02-02T01:56:16.852Z,6.65
2023-02-02T01:59:43.887Z,10.07
2023-02-02T02:03:07.886Z,10.57
2023-02-02T02:06:34.827Z,10.93
2023-02-02T02:09:58.910Z,9.95
2023-02-02T02:13:24.860Z,11.50
2023-02-02T02:16:49.001Z,5.37
2023-02-02T02:20:30.315Z,5.60
2023-02-02T02:24:11.679Z,9.73
2023-02-02T02:27:38.957Z,7.50
2023-02-02T02:31:07.048Z,14.47
2023-02-02T02:34:31.945Z,9.35
2023-02-02T02:37:56.967Z,10.83
2023-02-02T02:41:08.976Z,9.87
2023-02-02T02:44:33.058Z,8.23
2023-02-02T02:47:44.980Z,3.97
2023-02-02T02:51:11.063Z,6.70
2023-02-02T02:54:11.025Z,16.23
2023-02-02T02:57:38.081Z,10.17
2023-02-02T03:00:52.078Z,11.07
2023-02-02T03:04:21.995Z,9.10
2023-02-02T03:07:36.172Z,8.70
2023-02-02T03:11:00.059Z,7.13
2023-02-02T03:14:12.167Z,5.13
2023-02-02T03:17:24.033Z,8.40
2023-02-02T03:20:24.145Z,4.50
2023-02-02T03:23:50.153Z,7.90
2023-02-02T03:27:03.777Z,6.50
2023-02-02T03:30:28.135Z,7.75
2023-02-02T03:33:40.147Z,8.30
2023-02-02T03:36:53.193Z,8.23
2023-02-02T03:40:07.187Z,8.97
2023-02-02T03:43:20.183Z,6.03
2023-02-02T03:46:32.236Z,4.97
2023-02-02T03:49:45.175Z,5.80
2023-02-02T03:52:57.223Z,6.73
2023-02-02T03:56:23.254Z,4.17
2023-02-02T03:59:23.261Z,4.27
2023-02-02T04:02:47.232Z,4.47
2023-02-02T04:06:14.294Z,2.73
2023-02-02T04:09:26.192Z,2.67
2023-02-02T04:12:53.363Z,6.80
2023-02-02T04:15:53.288Z,6.43
2023-02-02T04:19:06.263Z,7.70
2023-02-02T04:22:18.311Z,6.17
2023-02-02T04:25:30.324Z,3.00
2023-02-02T04:28:43.317Z,4.60
2023-02-02T04:31:55.416Z,3.83
2023-02-02T04:35:07.359Z,5.70
2023-02-02T04:38:19.340Z,3.33
2023-02-02T04:41:31.359Z,3.25
2023-02-02T04:44:57.375Z,5.15
2023-02-02T04:47:57.355Z,5.33
2023-02-02T04:51:24.438Z,3.13
2023-02-02T04:54:24.361Z,2.77
2023-02-02T04:57:36.392Z,4.33
2023-02-02T05:00:50.511Z,1.35
2023-02-02T05:04:14.422Z,4.10
2023-02-02T05:07:14.407Z,2.25
2023-02-02T05:10:26.415Z,2.67
2023-02-02T05:13:26.473Z,3.23
2023-02-02T05:16:52.613Z,2.05
2023-02-02T05:19:52.491Z,3.60
2023-02-02T05:23:04.494Z,1.87
2023-02-02T05:26:16.663Z,2.40
2023-02-02T05:29:28.481Z,1.70
2023-02-02T05:32:45.463Z,3.03
2023-02-02T05:36:09.583Z,2.40
2023-02-02T05:39:09.500Z,8.00
2023-02-02T05:42:33.555Z,2.07
2023-02-02T05:45:33.668Z,2.73
2023-02-02T05:49:00.583Z,1.07
2023-02-02T05:52:12.633Z,5.03
2023-02-02T05:55:25.887Z,2.45
2023-02-02T05:58:37.600Z,2.23
2023-02-02T06:02:01.713Z,2.25
2023-02-02T06:05:27.656Z,0.47
2023-02-02T06:08:27.821Z,0.67
2023-02-02T06:11:55.672Z,1.97
2023-02-02T06:14:55.670Z,0.50
2023-02-02T06:18:07.709Z,1.30
2023-02-02T06:21:22.683Z,2.45
2023-02-02T06:24:34.700Z,3.00
2023-02-02T06:27:34.726Z,0.27
2023-02-02T06:30:46.793Z,2.63
2023-02-02T06:33:58.729Z,3.43
2023-02-02T06:37:24.752Z,1.50
2023-02-02T06:40:36.747Z,1.60
2023-02-02T06:43:48.710Z,1.73
2023-02-02T06:46:48.747Z,0.60
2023-02-02T06:50:01.753Z,1.07
2023-02-02T06:53:04.728Z,1.80
2023-02-02T06:56:30.816Z,1.17
2023-02-02T06:59:31.770Z,1.80
2023-02-02T07:02:47.889Z,0.60
2023-02-02T07:05:47.769Z,0.80
2023-02-02T07:09:13.840Z,3.40
2023-02-02T07:12:13.861Z,0.77
2023-02-02T07:15:26.149Z,0.70
2023-02-02T07:18:25.866Z,2.85
2023-02-02T07:21:49.837Z,1.40
2023-02-02T07:25:03.920Z,0.97
2023-02-02T07:28:16.971Z,3.85
2023-02-02T07:31:37.282Z,3.60
2023-02-02T07:35:01.922Z,0.70
2023-02-02T07:38:15.850Z,0.63
2023-02-02T07:41:41.971Z,1.05
2023-02-02T07:44:54.912Z,1.10
2023-02-02T07:48:22.911Z,2.43
2023-02-02T07:51:37.307Z,0.77
2023-02-02T07:54:46.982Z,0.47
2023-02-02T07:58:00.992Z,2.27
2023-02-02T08:01:27.092Z,3.30
2023-02-02T08:04:38.937Z,2.05
2023-02-02T08:07:39.032Z,1.33
2023-02-02T08:10:51.051Z,1.07
2023-02-02T08:14:04.998Z,1.20
2023-02-02T08:17:17.076Z,1.10
2023-02-02T08:20:18.068Z,3.15
2023-02-02T08:23:43.087Z,0.75
2023-02-02T08:26:55.054Z,3.95
2023-02-02T08:30:20.076Z,3.60
2023-02-02T08:33:20.044Z,0.70
2023-02-02T08:36:45.115Z,0.63
2023-02-02T08:39:45.082Z,2.13
2023-02-02T08:42:57.091Z,2.25
2023-02-02T08:46:11.194Z,1.33
2023-02-02T08:49:36.043Z,2.40
2023-02-02T08:52:36.169Z,1.33
2023-02-02T08:55:48.140Z,1.67
2023-02-02T08:59:00.156Z,1.65
2023-02-02T09:02:27.158Z,1.80
2023-02-02T09:05:27.522Z,2.90
2023-02-02T09:08:42.182Z,1.40
2023-02-02T09:11:42.193Z,1.27
2023-02-02T09:14:55.248Z,0.63
2023-02-02T09:18:08.299Z,1.70
2023-02-02T09:21:32.213Z,0.70
2023-02-02T09:24:35.211Z,3.03
2023-02-02T09:28:02.331Z,1.27
2023-02-02T09:31:02.327Z,1.03
2023-02-02T09:34:28.292Z,1.07
2023-02-02T09:37:28.252Z,1.00
2023-02-02T09:40:52.238Z,0.93
2023-02-02T09:44:07.385Z,1.50
2023-02-02T09:47:33.264Z,1.30
2023-02-02T09:50:47.429Z,0.50
2023-02-02T09:54:12.275Z,1.03
2023-02-02T09:57:29.663Z,0.60
2023-02-02T10:01:03.407Z,2.05
2023-02-02T10:04:38.543Z,0.60
2023-02-02T10:08:07.564Z,1.40
2023-02-02T10:11:55.421Z,0.60
2023-02-02T10:15:14.930Z,0.93
2023-02-02T10:18:50.958Z,0.75
2023-02-02T10:22:13.956Z,0.50
2023-02-02T10:25:51.516Z,1.15
2023-02-02T10:29:07.386Z,0.70
2023-02-02T10:32:35.465Z,0.50
2023-02-02T10:35:54.537Z,0.60
2023-02-02T10:39:18.488Z,0.95
2023-02-02T10:42:32.469Z,0.65
2023-02-02T10:45:56.522Z,0.20
2023-02-02T10:49:09.455Z,0.40
2023-02-02T10:52:37.509Z,1.37
2023-02-02T10:55:50.471Z,0.87
2023-02-02T10:59:17.475Z,0.70
2023-02-02T11:02:32.633Z,0.80
2023-02-02T11:06:02.254Z,1.37
2023-02-02T11:09:14.533Z,0.83
2023-02-02T11:12:40.592Z,3.50
2023-02-02T11:15:54.619Z,0.90
2023-02-02T11:19:18.614Z,1.65
2023-02-02T11:22:18.561Z,0.90
2023-02-02T11:25:47.613Z,1.40
2023-02-02T11:29:00.840Z,4.60
2023-02-02T11:32:25.570Z,0.53
2023-02-02T11:35:42.642Z,0.70
2023-02-02T11:38:54.645Z,0.60
2023-02-02T11:42:06.685Z,0.75
2023-02-02T11:45:31.634Z,0.77
2023-02-02T11:48:45.708Z,0.30
2023-02-02T11:52:10.683Z,0.93
2023-02-02T11:55:22.684Z,0.50
2023-02-02T11:58:47.714Z,0.60
2023-02-02T12:01:59.806Z,0.60
2023-02-02T12:05:38.736Z,0.95
2023-02-02T12:08:50.877Z,1.10
2023-02-02T12:12:16.724Z,1.00
2023-02-02T12:15:29.811Z,0.33
2023-02-02T12:18:56.812Z,4.07
2023-02-02T12:22:11.494Z,1.13
2023-02-02T12:25:37.768Z,0.67
2023-02-02T12:28:52.783Z,0.57
2023-02-02T12:32:23.837Z,0.50
2023-02-02T12:35:47.816Z,0.70
2023-02-02T12:39:25.918Z,1.05
2023-02-02T12:42:40.888Z,0.40
2023-02-02T12:46:11.831Z,1.27
2023-02-02T12:49:33.937Z,1.53
2023-02-02T12:53:02.983Z,0.65
2023-02-02T12:56:16.982Z,0.67
2023-02-02T12:59:42.848Z,0.40
2023-02-02T13:02:55.940Z,0.83
2023-02-02T13:06:20.928Z,0.50
2023-02-02T13:09:32.876Z,3.65
2023-02-02T13:12:59.052Z,1.10
2023-02-02T13:16:10.994Z,1.30
2023-02-02T13:19:34.906Z,0.40
2023-02-02T13:22:46.935Z,0.87
2023-02-02T13:26:11.996Z,1.75
2023-02-02T13:29:25.971Z,1.10
2023-02-02T13:32:49.970Z,0.65
2023-02-02T13:36:01.971Z,0.63
2023-02-02T13:39:26.028Z,0.93
2023-02-02T13:42:38.965Z,1.40
2023-02-02T13:46:07.067Z,1.30
2023-02-02T13:49:22.026Z,1.00
2023-02-02T13:52:50.094Z,0.97
2023-02-02T13:56:08.057Z,1.85
2023-02-02T13:59:35.067Z,1.27
2023-02-02T14:02:49.105Z,0.80
2023-02-02T14:06:23.152Z,0.60
2023-02-02T14:09:40.133Z,2.73
2023-02-02T14:12:53.096Z,1.25
2023-02-02T14:16:05.253Z,1.30
2023-02-02T14:19:31.098Z,1.50
2023-02-02T14:22:46.138Z,2.67
2023-02-02T14:26:16.171Z,3.73
2023-02-02T14:29:16.152Z,2.15
2023-02-02T14:32:54.164Z,2.90
2023-02-02T14:36:24.182Z,1.10
2023-02-02T14:39:51.164Z,1.37
2023-02-02T14:43:12.601Z,2.93
2023-02-02T14:46:46.209Z,2.15
2023-02-02T14:49:58.230Z,1.10
2023-02-02T14:53:27.212Z,1.50
2023-02-02T14:56:39.251Z,2.15
2023-02-02T15:00:04.250Z,1.17
2023-02-02T15:03:05.372Z,1.80
2023-02-02T15:06:34.361Z,1.43
2023-02-02T15:09:57.292Z,1.23
2023-02-02T15:13:27.292Z,1.47
2023-02-02T15:16:39.333Z,1.40
2023-02-02T15:20:03.361Z,3.50
2023-02-02T15:23:15.295Z,1.27
2023-02-02T15:26:41.379Z,3.77
2023-02-02T15:29:56.336Z,1.73
2023-02-02T15:33:20.424Z,4.27
2023-02-02T15:36:34.381Z,2.00
2023-02-02T15:39:58.467Z,2.73
2023-02-02T15:43:12.388Z,5.57
2023-02-02T15:46:42.449Z,5.71
2023-02-02T15:49:54.438Z,2.77
2023-02-02T15:53:24.385Z,2.30
2023-02-02T15:56:43.446Z,5.70
2023-02-02T16:00:09.431Z,3.20
2023-02-02T16:03:34.457Z,2.90
2023-02-02T16:06:47.438Z,5.00
2023-02-02T16:10:12.470Z,4.40
2023-02-02T16:13:24.535Z,2.90
2023-02-02T16:16:50.561Z,2.63
2023-02-02T16:20:02.472Z,2.50
2023-02-02T16:23:26.537Z,4.85
2023-02-02T16:26:38.548Z,3.30
2023-02-02T16:30:02.494Z,2.85
2023-02-02T16:33:16.560Z,3.57
2023-02-02T16:36:41.573Z,2.80
2023-02-02T16:39:41.561Z,4.30
2023-02-02T16:42:53.580Z,2.80
2023-02-02T16:46:10.674Z,2.20
2023-02-02T16:49:39.596Z,3.37
2023-02-02T16:52:39.610Z,2.83
2023-02-02T16:55:52.059Z,4.53
2023-02-02T16:59:06.622Z,3.57
2023-02-02T17:02:35.716Z,3.70
2023-02-02T17:05:48.657Z,2.07
2023-02-02T17:09:00.634Z,3.63
2023-02-02T17:12:33.109Z,2.33
2023-02-02T17:15:55.649Z,2.10
2023-02-02T17:19:07.721Z,2.30
2023-02-02T17:22:33.691Z,3.17
2023-02-02T17:25:45.744Z,2.10
2023-02-02T17:28:57.711Z,2.35
2023-02-02T17:32:09.742Z,2.53
2023-02-02T17:35:53.116Z,5.57
2023-02-02T17:38:52.746Z,3.00
2023-02-02T17:42:07.698Z,2.30
2023-02-02T17:45:07.795Z,2.17
2023-02-02T17:48:31.771Z,2.85
2023-02-02T17:51:31.794Z,2.95
2023-02-02T17:54:58.830Z,3.30
2023-02-02T17:57:58.821Z,4.60
2023-02-02T18:01:11.899Z,2.50
2023-02-02T18:04:36.815Z,4.10
2023-02-02T18:07:36.779Z,4.40
2023-02-02T18:11:02.834Z,2.73
2023-02-02T18:14:02.933Z,10.70
2023-02-02T18:17:14.863Z,3.13
2023-02-02T18:20:14.860Z,6.60
2023-02-02T18:23:39.877Z,4.37
2023-02-02T18:26:52.899Z,4.43
2023-02-02T18:30:16.892Z,7.50
2023-02-02T18:33:16.934Z,4.05
2023-02-02T18:36:41.909Z,6.67
2023-02-02T18:39:54.000Z,6.37
2023-02-02T18:43:20.984Z,5.30
2023-02-02T18:46:33.008Z,7.63
2023-02-02T18:49:45.944Z,8.20
2023-02-02T18:52:45.961Z,8.10
2023-02-02T18:55:58.006Z,12.90
2023-02-02T18:59:11.993Z,6.53
2023-02-02T19:02:37.013Z,8.17
2023-02-02T19:05:43.088Z,5.25
2023-02-02T19:08:56.082Z,11.75
2023-02-02T19:12:08.015Z,9.23
2023-02-02T19:15:37.049Z,4.43
2023-02-02T19:18:49.144Z,9.17
2023-02-02T19:22:13.045Z,5.97
2023-02-02T19:25:25.409Z,7.60
2023-02-02T19:28:49.089Z,8.40
2023-02-02T19:32:03.129Z,9.10
2023-02-02T19:35:15.085Z,6.53
2023-02-02T19:38:27.090Z,6.83
2023-02-02T19:41:39.132Z,7.33
2023-02-02T19:44:51.120Z,7.80
2023-02-02T19:48:17.251Z,6.35
2023-02-02T19:51:32.139Z,9.17
2023-02-02T19:54:59.157Z,6.77
2023-02-02T19:57:59.141Z,10.10
2023-02-02T20:01:23.194Z,5.05
2023-02-02T20:04:52.224Z,10.70
2023-02-02T20:08:04.269Z,11.13
2023-02-02T20:11:28.216Z,6.10
2023-02-02T20:14:46.228Z,8.55
2023-02-02T20:18:11.285Z,6.75
2023-02-02T20:21:25.259Z,5.65
2023-02-02T20:24:50.245Z,7.37
2023-02-02T20:28:02.311Z,9.13
2023-02-02T20:31:27.308Z,9.10
2023-02-02T20:34:42.269Z,4.80
2023-02-02T20:38:08.275Z,6.77
2023-02-02T20:41:20.304Z,8.13
2023-02-02T20:44:44.338Z,6.33
2023-02-02T20:47:44.285Z,5.40
2023-02-02T20:50:56.308Z,7.50
2023-02-02T20:54:10.318Z,7.10
2023-02-02T20:57:34.341Z,7.77
2023-02-02T21:00:34.353Z,7.17
2023-02-02T21:03:46.371Z,5.70
2023-02-02T21:06:46.442Z,6.27
2023-02-02T21:10:12.434Z,5.73
2023-02-02T21:13:24.417Z,7.30
2023-02-02T21:16:36.426Z,5.73
2023-02-02T21:19:36.432Z,4.57
2023-02-02T21:22:48.422Z,7.35
2023-02-02T21:26:01.433Z,6.60
2023-02-02T21:29:13.433Z,10.65
2023-02-02T21:32:25.489Z,7.60
2023-02-02T21:35:49.473Z,6.23
2023-02-02T21:39:01.497Z,12.17
2023-02-02T21:42:37.524Z,7.87
2023-02-02T21:45:53.558Z,7.55
2023-02-02T21:49:17.540Z,6.45
2023-02-02T21:52:41.529Z,7.23
2023-02-02T21:56:05.528Z,7.43
2023-02-02T21:59:19.545Z,7.00
2023-02-02T22:02:48.616Z,4.75
2023-02-02T22:06:00.572Z,8.13
2023-02-02T22:09:13.599Z,11.30
2023-02-02T22:12:38.592Z,7.83
2023-02-02T22:15:52.690Z,6.13
2023-02-02T22:19:05.629Z,3.93
2023-02-02T22:22:18.601Z,3.57
2023-02-02T22:25:44.623Z,9.00
2023-02-02T22:28:57.592Z,3.15
2023-02-02T22:32:24.669Z,3.35
2023-02-02T22:35:24.659Z,4.83
2023-02-02T22:38:49.662Z,4.20
2023-02-02T22:41:49.662Z,7.90
2023-02-02T22:45:01.701Z,4.25
2023-02-02T22:48:15.674Z,5.05
2023-02-02T22:51:27.695Z,6.80
2023-02-02T22:54:27.693Z,5.43
2023-02-02T22:57:40.715Z,5.37
2023-02-02T23:00:52.723Z,4.30
2023-02-02T23:04:18.731Z,3.80
2023-02-02T23:07:19.730Z,3.05
2023-02-02T23:10:43.749Z,5.65
2023-02-02T23:13:43.755Z,4.90
2023-02-02T23:16:55.796Z,6.60
2023-02-02T23:20:09.816Z,9.13
2023-02-02T23:23:21.789Z,4.47
2023-02-02T23:26:21.787Z,8.17
2023-02-02T23:29:34.901Z,4.03
2023-02-02T23:32:34.864Z,3.40
2023-02-02T23:36:01.880Z,5.77
2023-02-02T23:39:01.834Z,7.90
2023-02-02T23:42:14.819Z,4.50
2023-02-02T23:45:16.393Z,7.83
2023-02-02T23:48:27.887Z,4.67
2023-02-02T23:51:42.265Z,5.50
2023-02-02T23:55:06.902Z,6.97
2023-02-02T23:58:18.902Z,2.40
